sensor_id;sensor_type;location;lat;lon;timestamp;pressure;altitude;pressure_sealevel;temperature;humidity
41706;BME280;27385;51.096;17.190;2023-02-20T00:01:58;100944.98;;;0.86;81.02
41706;BME280;27385;51.096;17.190;2023-02-20T00:04:27;100944.36;;;0.85;81.03
41706;BME280;27385;51.096;17.190;2023-02-20T00:06:57;100946.17;;;0.84;81.10
41706;BME280;27385;51.096;17.190;2023-02-20T00:09:26;100948.38;;;0.83;81.11
41706;BME280;27385;51.096;17.190;2023-02-20T00:11:56;100947.58;;;0.80;81.19
41706;BME280;27385;51.096;17.190;2023-02-20T00:14:25;100942.34;;;0.79;81.20
41706;BME280;27385;51.096;17.190;2023-02-20T00:16:56;100936.38;;;0.77;81.20
41706;BME280;27385;51.096;17.190;2023-02-20T00:19:26;100930.33;;;0.77;81.33
41706;BME280;27385;51.096;17.190;2023-02-20T00:21:55;100923.82;;;0.75;81.42
41706;BME280;27385;51.096;17.190;2023-02-20T00:24:24;100922.40;;;0.75;81.55
41706;BME280;27385;51.096;17.190;2023-02-20T00:26:54;100918.47;;;0.75;81.70
41706;BME280;27385;51.096;17.190;2023-02-20T00:29:23;100912.83;;;0.74;81.82
41706;BME280;27385;51.096;17.190;2023-02-20T00:31:53;100903.95;;;0.74;81.92
41706;BME280;27385;51.096;17.190;2023-02-20T00:34:25;100902.21;;;0.75;82.04
41706;BME280;27385;51.096;17.190;2023-02-20T00:36:55;100892.72;;;0.76;82.08
41706;BME280;27385;51.096;17.190;2023-02-20T00:39:24;100892.71;;;0.78;82.23
41706;BME280;27385;51.096;17.190;2023-02-20T00:41:54;100891.91;;;0.81;82.22
41706;BME280;27385;51.096;17.190;2023-02-20T00:44:24;100893.17;;;0.83;82.23
41706;BME280;27385;51.096;17.190;2023-02-20T00:46:54;100888.22;;;0.84;82.40
41706;BME280;27385;51.096;17.190;2023-02-20T00:49:23;100884.05;;;0.85;82.37
41706;BME280;27385;51.096;17.190;2023-02-20T00:51:53;100888.20;;;0.87;82.42
41706;BME280;27385;51.096;17.190;2023-02-20T00:54:22;100894.15;;;0.90;82.46
41706;BME280;27385;51.096;17.190;2023-02-20T00:56:52;100898.71;;;0.93;82.44
41706;BME280;27385;51.096;17.190;2023-02-20T00:59:21;100896.27;;;0.95;82.50
41706;BME280;27385;51.096;17.190;2023-02-20T01:01:50;100898.85;;;0.97;82.53
41706;BME280;27385;51.096;17.190;2023-02-20T01:04:19;100897.83;;;1.00;82.47
41706;BME280;27385;51.096;17.190;2023-02-20T01:06:49;100891.45;;;1.02;82.52
41706;BME280;27385;51.096;17.190;2023-02-20T01:09:18;100891.44;;;1.04;82.59
41706;BME280;27385;51.096;17.190;2023-02-20T01:11:48;100892.61;;;1.06;82.56
41706;BME280;27385;51.096;17.190;2023-02-20T01:14:17;100888.52;;;1.09;82.52
41706;BME280;27385;51.096;17.190;2023-02-20T01:16:47;100886.55;;;1.11;82.60
41706;BME280;27385;51.096;17.190;2023-02-20T01:19:18;100882.39;;;1.13;82.58
41706;BME280;27385;51.096;17.190;2023-02-20T01:21:48;100878.76;;;1.15;82.50
41706;BME280;27385;51.096;17.190;2023-02-20T01:24:17;100879.77;;;1.16;82.54
41706;BME280;27385;51.096;17.190;2023-02-20T01:26:47;100884.41;;;1.16;82.66
41706;BME280;27385;51.096;17.190;2023-02-20T01:29:16;100882.60;;;1.15;82.65
41706;BME280;27385;51.096;17.190;2023-02-20T01:31:49;100883.08;;;1.15;82.72
41706;BME280;27385;51.096;17.190;2023-02-20T01:34:19;100878.14;;;1.14;82.69
41706;BME280;27385;51.096;17.190;2023-02-20T01:36:49;100878.52;;;1.15;82.80
41706;BME280;27385;51.096;17.190;2023-02-20T01:39:19;100870.81;;;1.15;82.84
41706;BME280;27385;51.096;17.190;2023-02-20T01:41:49;100860.98;;;1.16;82.89
41706;BME280;27385;51.096;17.190;2023-02-20T01:44:21;100849.92;;;1.15;82.88
41706;BME280;27385;51.096;17.190;2023-02-20T01:46:51;100843.01;;;1.16;82.84
41706;BME280;27385;51.096;17.190;2023-02-20T01:49:23;100836.63;;;1.16;82.94
41706;BME280;27385;51.096;17.190;2023-02-20T01:51:55;100832.86;;;1.17;83.00
41706;BME280;27385;51.096;17.190;2023-02-20T01:54:25;100826.17;;;1.17;83.06
41706;BME280;27385;51.096;17.190;2023-02-20T01:56:57;100831.52;;;1.18;83.06
41706;BME280;27385;51.096;17.190;2023-02-20T01:59:28;100829.77;;;1.20;83.11
41706;BME280;27385;51.096;17.190;2023-02-20T02:01:59;100833.08;;;1.21;83.07
41706;BME280;27385;51.096;17.190;2023-02-20T02:04:29;100835.26;;;1.23;83.12
41706;BME280;27385;51.096;17.190;2023-02-20T02:06:58;100833.29;;;1.25;83.09
41706;BME280;27385;51.096;17.190;2023-02-20T02:09:31;100827.38;;;1.26;83.12
41706;BME280;27385;51.096;17.190;2023-02-20T02:12:02;100816.22;;;1.27;83.15
41706;BME280;27385;51.096;17.190;2023-02-20T02:14:32;100814.02;;;1.27;83.15
41706;BME280;27385;51.096;17.190;2023-02-20T02:17:17;100806.62;;;1.27;83.19
41706;BME280;27385;51.096;17.190;2023-02-20T02:20:01;100804.67;;;1.26;83.20
41706;BME280;27385;51.096;17.190;2023-02-20T02:22:41;100802.80;;;1.26;83.28
41706;BME280;27385;51.096;17.190;2023-02-20T02:25:19;100804.42;;;1.26;83.32
41706;BME280;27385;51.096;17.190;2023-02-20T02:28:06;100792.55;;;1.27;83.34
41706;BME280;27385;51.096;17.190;2023-02-20T02:36:22;100787.85;;;1.26;83.43
41706;BME280;27385;51.096;17.190;2023-02-20T02:38:58;100791.02;;;1.25;83.35
41706;BME280;27385;51.096;17.190;2023-02-20T02:41:32;100789.44;;;1.23;83.38
41706;BME280;27385;51.096;17.190;2023-02-20T02:44:05;100788.44;;;1.22;83.46
41706;BME280;27385;51.096;17.190;2023-02-20T02:46:38;100780.12;;;1.19;83.40
41706;BME280;27385;51.096;17.190;2023-02-20T02:49:13;100777.21;;;1.18;83.45
41706;BME280;27385;51.096;17.190;2023-02-20T02:51:45;100780.76;;;1.18;83.37
41706;BME280;27385;51.096;17.190;2023-02-20T02:54:17;100791.53;;;1.17;83.50
41706;BME280;27385;51.096;17.190;2023-02-20T02:56:49;100787.05;;;1.16;83.40
41706;BME280;27385;51.096;17.190;2023-02-20T02:59:18;100778.58;;;1.15;83.45
41706;BME280;27385;51.096;17.190;2023-02-20T03:01:51;100771.52;;;1.13;83.46
41706;BME280;27385;51.096;17.190;2023-02-20T03:04:21;100767.36;;;1.10;83.59
41706;BME280;27385;51.096;17.190;2023-02-20T03:06:54;100761.88;;;1.08;83.55
41706;BME280;27385;51.096;17.190;2023-02-20T03:09:25;100758.91;;;1.06;83.62
41706;BME280;27385;51.096;17.190;2023-02-20T03:11:56;100752.95;;;1.04;83.67
41706;BME280;27385;51.096;17.190;2023-02-20T03:14:30;100749.89;;;1.02;83.70
41706;BME280;27385;51.096;17.190;2023-02-20T03:17:22;100746.54;;;0.99;83.81
41706;BME280;27385;51.096;17.190;2023-02-20T03:19:55;100749.53;;;0.97;83.93
41706;BME280;27385;51.096;17.190;2023-02-20T03:22:26;100745.77;;;0.96;83.94
41706;BME280;27385;51.096;17.190;2023-02-20T03:24:57;100748.83;;;0.96;84.04
41706;BME280;27385;51.096;17.190;2023-02-20T03:27:30;100754.58;;;0.96;84.08
41706;BME280;27385;51.096;17.190;2023-02-20T03:30:08;100750.80;;;0.96;84.14
41706;BME280;27385;51.096;17.190;2023-02-20T03:32:39;100754.48;;;0.97;84.15
41706;BME280;27385;51.096;17.190;2023-02-20T03:35:27;100759.59;;;0.99;84.24
41706;BME280;27385;51.096;17.190;2023-02-20T03:38:18;100761.23;;;0.99;84.27
41706;BME280;27385;51.096;17.190;2023-02-20T03:41:07;100761.93;;;1.01;84.26
41706;BME280;27385;51.096;17.190;2023-02-20T03:43:54;100759.48;;;1.05;84.37
41706;BME280;27385;51.096;17.190;2023-02-20T03:46:24;100754.20;;;1.06;84.40
41706;BME280;27385;51.096;17.190;2023-02-20T03:48:56;100749.16;;;1.07;84.34
41706;BME280;27385;51.096;17.190;2023-02-20T03:51:26;100744.75;;;1.09;84.43
41706;BME280;27385;51.096;17.190;2023-02-20T03:53:56;100742.69;;;1.11;84.41
41706;BME280;27385;51.096;17.190;2023-02-20T03:56:25;100745.05;;;1.12;84.39
41706;BME280;27385;51.096;17.190;2023-02-20T03:58:57;100744.89;;;1.14;84.39
41706;BME280;27385;51.096;17.190;2023-02-20T04:01:29;100742.51;;;1.15;84.41
41706;BME280;27385;51.096;17.190;2023-02-20T04:04:01;100735.59;;;1.15;84.40
41706;BME280;27385;51.096;17.190;2023-02-20T04:06:33;100736.68;;;1.17;84.41
41706;BME280;27385;51.096;17.190;2023-02-20T04:09:04;100732.27;;;1.18;84.38
41706;BME280;27385;51.096;17.190;2023-02-20T04:11:35;100727.79;;;1.19;84.42
41706;BME280;27385;51.096;17.190;2023-02-20T04:14:05;100720.86;;;1.20;84.36
41706;BME280;27385;51.096;17.190;2023-02-20T04:16:35;100707.66;;;1.21;84.38
41706;BME280;27385;51.096;17.190;2023-02-20T04:19:07;100710.88;;;1.22;84.27
41706;BME280;27385;51.096;17.190;2023-02-20T04:21:36;100708.43;;;1.23;84.28
41706;BME280;27385;51.096;17.190;2023-02-20T04:24:08;100706.94;;;1.22;84.19
41706;BME280;27385;51.096;17.190;2023-02-20T04:26:39;100703.80;;;1.24;84.25
41706;BME280;27385;51.096;17.190;2023-02-20T04:29:08;100708.96;;;1.25;84.21
41706;BME280;27385;51.096;17.190;2023-02-20T04:31:38;100709.13;;;1.24;84.07
41706;BME280;27385;51.096;17.190;2023-02-20T04:34:07;100711.33;;;1.24;84.04
41706;BME280;27385;51.096;17.190;2023-02-20T04:36:36;100711.48;;;1.25;84.01
41706;BME280;27385;51.096;17.190;2023-02-20T04:39:06;100703.85;;;1.25;84.09
41706;BME280;27385;51.096;17.190;2023-02-20T04:41:35;100701.33;;;1.26;84.17
41706;BME280;27385;51.096;17.190;2023-02-20T04:44:05;100696.40;;;1.24;84.13
41706;BME280;27385;51.096;17.190;2023-02-20T04:46:54;100698.05;;;1.24;84.14
41706;BME280;27385;51.096;17.190;2023-02-20T04:49:23;100695.86;;;1.24;84.08
41706;BME280;27385;51.096;17.190;2023-02-20T04:51:53;100689.80;;;1.24;84.18
41706;BME280;27385;51.096;17.190;2023-02-20T04:54:22;100682.27;;;1.23;84.15
41706;BME280;27385;51.096;17.190;2023-02-20T04:56:52;100675.04;;;1.23;84.15
41706;BME280;27385;51.096;17.190;2023-02-20T04:59:21;100671.73;;;1.22;84.29
41706;BME280;27385;51.096;17.190;2023-02-20T05:01:51;100675.98;;;1.23;84.20
41706;BME280;27385;51.096;17.190;2023-02-20T05:04:21;100675.58;;;1.23;84.24
41706;BME280;27385;51.096;17.190;2023-02-20T05:06:51;100668.66;;;1.24;84.16
41706;BME280;27385;51.096;17.190;2023-02-20T05:09:21;100658.84;;;1.24;84.23
41706;BME280;27385;51.096;17.190;2023-02-20T05:11:51;100665.27;;;1.24;84.25
41706;BME280;27385;51.096;17.190;2023-02-20T05:14:20;100660.49;;;1.23;84.24
41706;BME280;27385;51.096;17.190;2023-02-20T05:16:49;100663.17;;;1.22;84.32
41706;BME280;27385;51.096;17.190;2023-02-20T05:19:19;100658.78;;;1.23;84.37
41706;BME280;27385;51.096;17.190;2023-02-20T05:21:48;100657.69;;;1.22;84.43
41706;BME280;27385;51.096;17.190;2023-02-20T05:24:35;100661.77;;;1.21;84.42
41706;BME280;27385;51.096;17.190;2023-02-20T05:27:05;100662.70;;;1.23;84.50
41706;BME280;27385;51.096;17.190;2023-02-20T05:29:35;100655.08;;;1.23;84.52
41706;BME280;27385;51.096;17.190;2023-02-20T05:32:04;100646.81;;;1.23;84.48
41706;BME280;27385;51.096;17.190;2023-02-20T05:34:33;100645.09;;;1.24;84.52
41706;BME280;27385;51.096;17.190;2023-02-20T05:37:02;100649.24;;;1.26;84.61
41706;BME280;27385;51.096;17.190;2023-02-20T05:39:32;100641.52;;;1.27;84.50
41706;BME280;27385;51.096;17.190;2023-02-20T05:42:01;100643.87;;;1.29;84.67
41706;BME280;27385;51.096;17.190;2023-02-20T05:44:30;100644.88;;;1.30;84.64
41706;BME280;27385;51.096;17.190;2023-02-20T05:47:00;100646.28;;;1.32;84.72
41706;BME280;27385;51.096;17.190;2023-02-20T05:49:30;100644.29;;;1.34;84.70
41706;BME280;27385;51.096;17.190;2023-02-20T05:51:59;100642.62;;;1.36;84.82
41706;BME280;27385;51.096;17.190;2023-02-20T05:54:29;100639.63;;;1.37;84.87
41706;BME280;27385;51.096;17.190;2023-02-20T05:56:58;100638.66;;;1.39;84.89
41706;BME280;27385;51.096;17.190;2023-02-20T05:59:27;100642.73;;;1.41;84.97
41706;BME280;27385;51.096;17.190;2023-02-20T06:01:57;100644.05;;;1.43;85.06
41706;BME280;27385;51.096;17.190;2023-02-20T06:04:27;100642.05;;;1.46;85.14
41706;BME280;27385;51.096;17.190;2023-02-20T06:06:56;100643.23;;;1.47;85.18
41706;BME280;27385;51.096;17.190;2023-02-20T06:09:25;100631.02;;;1.50;85.21
41706;BME280;27385;51.096;17.190;2023-02-20T06:11:55;100631.40;;;1.52;85.40
41706;BME280;27385;51.096;17.190;2023-02-20T06:14:24;100631.67;;;1.55;85.42
41706;BME280;27385;51.096;17.190;2023-02-20T06:16:55;100632.28;;;1.56;85.38
41706;BME280;27385;51.096;17.190;2023-02-20T06:19:24;100626.44;;;1.60;85.55
41706;BME280;27385;51.096;17.190;2023-02-20T06:21:54;100630.81;;;1.62;85.52
41706;BME280;27385;51.096;17.190;2023-02-20T06:24:25;100629.14;;;1.64;85.59
41706;BME280;27385;51.096;17.190;2023-02-20T06:26:56;100626.84;;;1.67;85.66
41706;BME280;27385;51.096;17.190;2023-02-20T06:29:25;100633.23;;;1.70;85.77
41706;BME280;27385;51.096;17.190;2023-02-20T06:31:57;100631.80;;;1.74;85.84
41706;BME280;27385;51.096;17.190;2023-02-20T06:34:27;100624.36;;;1.77;85.73
41706;BME280;27385;51.096;17.190;2023-02-20T06:37:00;100618.50;;;1.81;85.90
41706;BME280;27385;51.096;17.190;2023-02-20T06:39:30;100613.83;;;1.84;85.96
41706;BME280;27385;51.096;17.190;2023-02-20T06:42:00;100611.10;;;1.88;85.90
41706;BME280;27385;51.096;17.190;2023-02-20T06:44:29;100613.95;;;1.93;86.10
41706;BME280;27385;51.096;17.190;2023-02-20T06:47:00;100614.53;;;1.97;86.12
41706;BME280;27385;51.096;17.190;2023-02-20T06:49:29;100610.38;;;2.02;86.22
41706;BME280;27385;51.096;17.190;2023-02-20T06:51:58;100614.64;;;2.08;86.25
41706;BME280;27385;51.096;17.190;2023-02-20T06:54:28;100609.75;;;2.14;86.42
41706;BME280;27385;51.096;17.190;2023-02-20T06:56:57;100604.02;;;2.19;86.43
41706;BME280;27385;51.096;17.190;2023-02-20T06:59:27;100594.36;;;2.24;86.47
41706;BME280;27385;51.096;17.190;2023-02-20T07:01:56;100594.97;;;2.31;86.50
41706;BME280;27385;51.096;17.190;2023-02-20T07:04:25;100591.80;;;2.38;86.63
41706;BME280;27385;51.096;17.190;2023-02-20T07:06:55;100594.77;;;2.45;86.75
41706;BME280;27385;51.096;17.190;2023-02-20T07:09:24;100591.61;;;2.51;86.69
41706;BME280;27385;51.096;17.190;2023-02-20T07:11:54;100589.80;;;2.58;86.63
41706;BME280;27385;51.096;17.190;2023-02-20T07:14:24;100589.94;;;2.63;86.74
41706;BME280;27385;51.096;17.190;2023-02-20T07:16:53;100580.41;;;2.69;86.63
41706;BME280;27385;51.096;17.190;2023-02-20T07:19:22;100579.20;;;2.75;86.65
41706;BME280;27385;51.096;17.190;2023-02-20T07:21:52;100567.23;;;2.80;86.62
41706;BME280;27385;51.096;17.190;2023-02-20T07:24:21;100560.61;;;2.85;86.61
41706;BME280;27385;51.096;17.190;2023-02-20T07:26:50;100563.14;;;2.90;86.63
41706;BME280;27385;51.096;17.190;2023-02-20T07:29:20;100560.07;;;2.94;86.57
41706;BME280;27385;51.096;17.190;2023-02-20T07:31:49;100552.38;;;2.97;86.65
41706;BME280;27385;51.096;17.190;2023-02-20T07:34:18;100544.80;;;3.01;86.72
41706;BME280;27385;51.096;17.190;2023-02-20T07:36:48;100545.70;;;3.05;86.63
41706;BME280;27385;51.096;17.190;2023-02-20T07:39:17;100538.88;;;3.07;86.77
41706;BME280;27385;51.096;17.190;2023-02-20T07:41:49;100530.93;;;3.11;86.81
41706;BME280;27385;51.096;17.190;2023-02-20T07:44:18;100520.94;;;3.14;86.92
41706;BME280;27385;51.096;17.190;2023-02-20T07:46:48;100517.16;;;3.18;86.98
41706;BME280;27385;51.096;17.190;2023-02-20T07:49:17;100510.08;;;3.22;87.10
41706;BME280;27385;51.096;17.190;2023-02-20T07:51:46;100503.90;;;3.27;87.13
41706;BME280;27385;51.096;17.190;2023-02-20T07:54:16;100503.65;;;3.33;87.25
41706;BME280;27385;51.096;17.190;2023-02-20T07:56:45;100508.46;;;3.41;87.46
41706;BME280;27385;51.096;17.190;2023-02-20T07:59:14;100508.56;;;3.47;87.39
41706;BME280;27385;51.096;17.190;2023-02-20T08:01:44;100503.79;;;3.53;87.39
41706;BME280;27385;51.096;17.190;2023-02-20T08:04:13;100502.09;;;3.59;87.46
41706;BME280;27385;51.096;17.190;2023-02-20T08:06:43;100488.31;;;3.66;87.50
41706;BME280;27385;51.096;17.190;2023-02-20T08:09:12;100491.41;;;3.72;87.64
41706;BME280;27385;51.096;17.190;2023-02-20T08:11:41;100491.49;;;3.79;87.58
41706;BME280;27385;51.096;17.190;2023-02-20T08:14:12;100488.26;;;3.87;87.64
41706;BME280;27385;51.096;17.190;2023-02-20T08:16:42;100481.64;;;3.94;87.69
41706;BME280;27385;51.096;17.190;2023-02-20T08:19:11;100479.55;;;4.02;87.69
41706;BME280;27385;51.096;17.190;2023-02-20T08:21:41;100475.62;;;4.08;87.69
41706;BME280;27385;51.096;17.190;2023-02-20T08:24:10;100464.10;;;4.15;87.66
41706;BME280;27385;51.096;17.190;2023-02-20T08:26:43;100459.92;;;4.21;87.61
41706;BME280;27385;51.096;17.190;2023-02-20T08:29:12;100458.90;;;4.28;87.52
41706;BME280;27385;51.096;17.190;2023-02-20T08:31:42;100458.98;;;4.35;87.56
41706;BME280;27385;51.096;17.190;2023-02-20T08:34:11;100454.92;;;4.42;87.62
41706;BME280;27385;51.096;17.190;2023-02-20T08:36:41;100455.78;;;4.49;87.71
41706;BME280;27385;51.096;17.190;2023-02-20T08:39:10;100449.98;;;4.56;87.70
41706;BME280;27385;51.096;17.190;2023-02-20T08:41:43;100440.05;;;4.65;87.71
41706;BME280;27385;51.096;17.190;2023-02-20T08:44:13;100439.68;;;4.73;87.75
41706;BME280;27385;51.096;17.190;2023-02-20T08:46:46;100437.17;;;4.81;87.80
41706;BME280;27385;51.096;17.190;2023-02-20T08:49:16;100431.98;;;4.89;87.82
41706;BME280;27385;51.096;17.190;2023-02-20T08:51:45;100429.37;;;4.99;87.79
41706;BME280;27385;51.096;17.190;2023-02-20T08:54:15;100419.73;;;5.07;87.77
41706;BME280;27385;51.096;17.190;2023-02-20T08:56:45;100414.73;;;5.16;87.78
41706;BME280;27385;51.096;17.190;2023-02-20T08:59:15;100411.00;;;5.25;87.76
41706;BME280;27385;51.096;17.190;2023-02-20T09:01:45;100404.48;;;5.34;87.66
41706;BME280;27385;51.096;17.190;2023-02-20T09:04:14;100393.71;;;5.42;87.67
41706;BME280;27385;51.096;17.190;2023-02-20T09:06:44;100391.50;;;5.51;87.58
41706;BME280;27385;51.096;17.190;2023-02-20T09:09:13;100391.33;;;5.59;87.41
41706;BME280;27385;51.096;17.190;2023-02-20T09:11:43;100389.39;;;5.65;87.48
41706;BME280;27385;51.096;17.190;2023-02-20T09:14:12;100384.73;;;5.72;87.45
41706;BME280;27385;51.096;17.190;2023-02-20T09:16:42;100381.62;;;5.79;87.52
41706;BME280;27385;51.096;17.190;2023-02-20T09:19:11;100380.77;;;5.86;87.51
41706;BME280;27385;51.096;17.190;2023-02-20T09:21:43;100377.32;;;5.93;87.53
41706;BME280;27385;51.096;17.190;2023-02-20T09:24:14;100371.73;;;5.99;87.44
41706;BME280;27385;51.096;17.190;2023-02-20T09:26:44;100371.30;;;6.05;87.20
41706;BME280;27385;51.096;17.190;2023-02-20T09:29:13;100365.60;;;6.10;87.31
41706;BME280;27385;51.096;17.190;2023-02-20T09:31:43;100368.99;;;6.15;87.40
41706;BME280;27385;51.096;17.190;2023-02-20T09:34:12;100365.93;;;6.19;87.45
41706;BME280;27385;51.096;17.190;2023-02-20T09:36:42;100358.86;;;6.22;87.64
41706;BME280;27385;51.096;17.190;2023-02-20T09:42:34;100346.55;;;6.33;87.85
41706;BME280;27385;51.096;17.190;2023-02-20T09:45:09;100344.67;;;6.41;88.15
41706;BME280;27385;51.096;17.190;2023-02-20T09:47:43;100335.80;;;6.48;87.91
41706;BME280;27385;51.096;17.190;2023-02-20T09:50:17;100329.20;;;6.53;87.41
41706;BME280;27385;51.096;17.190;2023-02-20T09:52:50;100328.21;;;6.59;87.35
41706;BME280;27385;51.096;17.190;2023-02-20T09:55:24;100323.44;;;6.64;86.89
41706;BME280;27385;51.096;17.190;2023-02-20T09:57:57;100317.45;;;6.70;86.67
41706;BME280;27385;51.096;17.190;2023-02-20T10:00:27;100317.15;;;6.76;85.97
41706;BME280;27385;51.096;17.190;2023-02-20T10:03:00;100317.83;;;6.81;85.52
41706;BME280;27385;51.096;17.190;2023-02-20T10:05:34;100314.37;;;6.82;84.45
41706;BME280;27385;51.096;17.190;2023-02-20T10:08:05;100298.02;;;6.83;84.46
41706;BME280;27385;51.096;17.190;2023-02-20T10:10:37;100309.42;;;6.85;84.39
41706;BME280;27385;51.096;17.190;2023-02-20T10:13:10;100302.15;;;6.89;84.31
41706;BME280;27385;51.096;17.190;2023-02-20T10:15:47;100277.52;;;6.92;84.49
41706;BME280;27385;51.096;17.190;2023-02-20T10:18:20;100250.80;;;6.96;84.21
41706;BME280;27385;51.096;17.190;2023-02-20T10:20:57;100240.84;;;7.00;83.98
41706;BME280;27385;51.096;17.190;2023-02-20T10:23:32;100238.31;;;7.03;83.67
41706;BME280;27385;51.096;17.190;2023-02-20T10:26:07;100233.73;;;7.08;83.65
41706;BME280;27385;51.096;17.190;2023-02-20T10:28:39;100239.02;;;7.12;83.41
41706;BME280;27385;51.096;17.190;2023-02-20T10:31:12;100232.99;;;7.18;83.37
41706;BME280;27385;51.096;17.190;2023-02-20T10:33:49;100221.30;;;7.25;83.38
41706;BME280;27385;51.096;17.190;2023-02-20T10:36:21;100203.27;;;7.31;83.36
41706;BME280;27385;51.096;17.190;2023-02-20T10:38:54;100187.39;;;7.38;83.26
41706;BME280;27385;51.096;17.190;2023-02-20T10:41:29;100173.23;;;7.44;83.23
41706;BME280;27385;51.096;17.190;2023-02-20T10:44:00;100168.92;;;7.50;83.31
41706;BME280;27385;51.096;17.190;2023-02-20T10:46:34;100147.95;;;7.57;83.47
41706;BME280;27385;51.096;17.190;2023-02-20T10:49:12;100146.88;;;7.63;83.15
41706;BME280;27385;51.096;17.190;2023-02-20T10:51:45;100140.95;;;7.70;83.35
41706;BME280;27385;51.096;17.190;2023-02-20T10:54:17;100137.60;;;7.78;83.35
41706;BME280;27385;51.096;17.190;2023-02-20T10:56:49;100120.41;;;7.86;83.43
41706;BME280;27385;51.096;17.190;2023-02-20T10:59:22;100105.23;;;7.95;83.35
41706;BME280;27385;51.096;17.190;2023-02-20T11:01:55;100109.67;;;8.04;83.17
41706;BME280;27385;51.096;17.190;2023-02-20T11:04:26;100108.46;;;8.13;83.24
41706;BME280;27385;51.096;17.190;2023-02-20T11:06:57;100115.55;;;8.22;83.01
41706;BME280;27385;51.096;17.190;2023-02-20T11:09:28;100123.38;;;8.26;82.87
41706;BME280;27385;51.096;17.190;2023-02-20T11:11:57;100122.67;;;8.32;82.79
41706;BME280;27385;51.096;17.190;2023-02-20T11:14:29;100105.78;;;8.36;82.60
41706;BME280;27385;51.096;17.190;2023-02-20T11:17:00;100095.77;;;8.40;82.54
41706;BME280;27385;51.096;17.190;2023-02-20T11:19:37;100091.77;;;8.44;82.24
41706;BME280;27385;51.096;17.190;2023-02-20T11:22:08;100090.20;;;8.46;82.12
41706;BME280;27385;51.096;17.190;2023-02-20T11:24:38;100087.64;;;8.50;82.06
41706;BME280;27385;51.096;17.190;2023-02-20T11:27:09;100081.35;;;8.56;82.23
41706;BME280;27385;51.096;17.190;2023-02-20T11:29:50;100081.00;;;8.63;82.10
41706;BME280;27385;51.096;17.190;2023-02-20T11:32:23;100065.17;;;8.71;81.44
41706;BME280;27385;51.096;17.190;2023-02-20T11:35:19;100059.48;;;8.81;81.29
41706;BME280;27385;51.096;17.190;2023-02-20T11:37:50;100063.02;;;8.94;80.69
41706;BME280;27385;51.096;17.190;2023-02-20T11:40:21;100062.95;;;9.02;80.14
41706;BME280;27385;51.096;17.190;2023-02-20T11:42:53;100048.11;;;9.09;80.00
41706;BME280;27385;51.096;17.190;2023-02-20T11:45:23;100037.48;;;9.17;79.96
41706;BME280;27385;51.096;17.190;2023-02-20T11:48:06;100037.35;;;9.22;79.63
41706;BME280;27385;51.096;17.190;2023-02-20T11:50:41;100028.05;;;9.28;78.99
41706;BME280;27385;51.096;17.190;2023-02-20T11:53:18;100025.27;;;9.34;78.22
41706;BME280;27385;51.096;17.190;2023-02-20T11:55:48;100023.27;;;9.39;78.90
41706;BME280;27385;51.096;17.190;2023-02-20T11:58:22;100012.89;;;9.44;79.11
41706;BME280;27385;51.096;17.190;2023-02-20T12:00:53;100004.29;;;9.50;78.62
41706;BME280;27385;51.096;17.190;2023-02-20T12:03:23;99996.44;;;9.56;79.07
41706;BME280;27385;51.096;17.190;2023-02-20T12:05:55;99989.77;;;9.63;79.05
41706;BME280;27385;51.096;17.190;2023-02-20T12:08:38;99978.66;;;9.69;78.44
41706;BME280;27385;51.096;17.190;2023-02-20T12:11:11;99970.14;;;9.77;77.62
41706;BME280;27385;51.096;17.190;2023-02-20T12:13:43;99968.34;;;9.85;77.20
41706;BME280;27385;51.096;17.190;2023-02-20T12:16:31;99960.30;;;9.92;76.19
41706;BME280;27385;51.096;17.190;2023-02-20T12:19:06;99950.95;;;10.00;75.39
41706;BME280;27385;51.096;17.190;2023-02-20T12:21:45;99944.92;;;10.07;76.15
41706;BME280;27385;51.096;17.190;2023-02-20T12:24:26;99940.03;;;10.09;76.54
41706;BME280;27385;51.096;17.190;2023-02-20T12:26:57;99933.61;;;10.07;76.50
41706;BME280;27385;51.096;17.190;2023-02-20T12:29:34;99915.67;;;10.04;76.29
41706;BME280;27385;51.096;17.190;2023-02-20T12:32:11;99909.65;;;10.02;76.23
41706;BME280;27385;51.096;17.190;2023-02-20T12:34:59;99896.23;;;10.00;75.78
41706;BME280;27385;51.096;17.190;2023-02-20T12:37:35;99890.91;;;9.96;75.46
41706;BME280;27385;51.096;17.190;2023-02-20T12:40:11;99883.14;;;9.95;75.69
41706;BME280;27385;51.096;17.190;2023-02-20T12:42:48;99879.75;;;9.96;75.26
41706;BME280;27385;51.096;17.190;2023-02-20T12:45:24;99868.15;;;9.96;75.59
41706;BME280;27385;51.096;17.190;2023-02-20T12:47:59;99856.88;;;9.98;75.18
41706;BME280;27385;51.096;17.190;2023-02-20T12:50:38;99860.59;;;10.00;74.90
41706;BME280;27385;51.096;17.190;2023-02-20T12:53:11;99853.57;;;10.02;74.09
41706;BME280;27385;51.096;17.190;2023-02-20T12:55:48;99835.08;;;10.02;74.32
41706;BME280;27385;51.096;17.190;2023-02-20T12:58:23;99839.65;;;10.04;74.65
41706;BME280;27385;51.096;17.190;2023-02-20T13:00:56;99842.88;;;10.06;74.45
41706;BME280;27385;51.096;17.190;2023-02-20T13:03:32;99838.70;;;10.08;74.06
41706;BME280;27385;51.096;17.190;2023-02-20T13:06:02;99826.42;;;10.10;73.95
41706;BME280;27385;51.096;17.190;2023-02-20T13:08:33;99828.02;;;10.13;74.11
41706;BME280;27385;51.096;17.190;2023-02-20T13:11:05;99820.73;;;10.14;72.64
41706;BME280;27385;51.096;17.190;2023-02-20T13:16:30;99801.17;;;10.21;73.52
41706;BME280;27385;51.096;17.190;2023-02-20T13:19:02;99805.43;;;10.23;72.99
41706;BME280;27385;51.096;17.190;2023-02-20T13:21:34;99796.41;;;10.24;72.76
41706;BME280;27385;51.096;17.190;2023-02-20T13:24:27;99796.50;;;10.23;72.62
41706;BME280;27385;51.096;17.190;2023-02-20T13:26:57;99790.38;;;10.20;71.51